sensor_id;sensor_type;location;lat;lon;timestamp;P1;durP1;ratioP1;P2;durP2;ratioP2
29724;SDS011;16636;48.394;15.468;2022-10-30T00:01:37;12.50;;;5.60;;
29724;SDS011;16636;48.394;15.468;2022-10-30T00:04:03;9.90;;;4.60;;
29724;SDS011;16636;48.394;15.468;2022-10-30T00:06:29;10.10;;;5.00;;
29724;SDS011;16636;48.394;15.468;2022-10-30T00:08:54;9.80;;;5.00;;
29724;SDS011;16636;48.394;15.468;2022-10-30T00:11:20;9.48;;;4.75;;
29724;SDS011;16636;48.394;15.468;2022-10-30T00:13:46;8.82;;;5.00;;
29724;SDS011;16636;48.394;15.468;2022-10-30T00:16:12;9.10;;;5.03;;
29724;SDS011;16636;48.394;15.468;2022-10-30T00:18:38;10.57;;;4.90;;
29724;SDS011;16636;48.394;15.468;2022-10-30T00:21:07;8.65;;;4.72;;
29724;SDS011;16636;48.394;15.468;2022-10-30T00:23:36;11.60;;;5.10;;
29724;SDS011;16636;48.394;15.468;2022-10-30T00:26:03;11.63;;;4.85;;
29724;SDS011;16636;48.394;15.468;2022-10-30T00:28:32;12.48;;;4.90;;
29724;SDS011;16636;48.394;15.468;2022-10-30T00:31:02;10.93;;;5.40;;
29724;SDS011;16636;48.394;15.468;2022-10-30T00:33:28;14.00;;;4.65;;
29724;SDS011;16636;48.394;15.468;2022-10-30T00:35:55;8.23;;;4.47;;
29724;SDS011;16636;48.394;15.468;2022-10-30T00:38:21;9.95;;;5.07;;
29724;SDS011;16636;48.394;15.468;2022-10-30T00:40:47;9.05;;;4.80;;
29724;SDS011;16636;48.394;15.468;2022-10-30T00:45:55;11.77;;;4.72;;
29724;SDS011;16636;48.394;15.468;2022-10-30T00:48:55;9.52;;;4.38;;
29724;SDS011;16636;48.394;15.468;2022-10-30T00:51:28;6.75;;;4.20;;
29724;SDS011;16636;48.394;15.468;2022-10-30T00:53:57;9.40;;;4.63;;
29724;SDS011;16636;48.394;15.468;2022-10-30T00:56:24;8.18;;;4.68;;
29724;SDS011;16636;48.394;15.468;2022-10-30T00:58:56;8.38;;;4.40;;
29724;SDS011;16636;48.394;15.468;2022-10-30T01:01:25;10.63;;;4.57;;
29724;SDS011;16636;48.394;15.468;2022-10-30T01:03:57;9.93;;;4.20;;
29724;SDS011;16636;48.394;15.468;2022-10-30T01:06:25;7.60;;;4.35;;
29724;SDS011;16636;48.394;15.468;2022-10-30T01:08:54;9.20;;;4.65;;
29724;SDS011;16636;48.394;15.468;2022-10-30T01:11:20;7.45;;;4.20;;
29724;SDS011;16636;48.394;15.468;2022-10-30T01:13:47;13.63;;;4.40;;
29724;SDS011;16636;48.394;15.468;2022-10-30T01:21:34;9.68;;;5.70;;
29724;SDS011;16636;48.394;15.468;2022-10-30T01:26:48;8.50;;;5.20;;
29724;SDS011;16636;48.394;15.468;2022-10-30T01:35:16;12.38;;;5.30;;
29724;SDS011;16636;48.394;15.468;2022-10-30T01:38:19;8.82;;;4.22;;
29724;SDS011;16636;48.394;15.468;2022-10-30T01:43:41;8.38;;;4.22;;
29724;SDS011;16636;48.394;15.468;2022-10-30T01:46:29;8.57;;;5.20;;
29724;SDS011;16636;48.394;15.468;2022-10-30T01:54:53;9.02;;;5.63;;
29724;SDS011;16636;48.394;15.468;2022-10-30T02:00:13;9.82;;;5.03;;
29724;SDS011;16636;48.394;15.468;2022-10-30T02:02:45;8.32;;;4.43;;
29724;SDS011;16636;48.394;15.468;2022-10-30T02:05:15;6.53;;;3.67;;
29724;SDS011;16636;48.394;15.468;2022-10-30T02:07:52;10.13;;;5.18;;
29724;SDS011;16636;48.394;15.468;2022-10-30T02:10:18;12.60;;;4.82;;
29724;SDS011;16636;48.394;15.468;2022-10-30T02:12:44;12.38;;;4.65;;
29724;SDS011;16636;48.394;15.468;2022-10-30T02:15:11;13.27;;;4.97;;
29724;SDS011;16636;48.394;15.468;2022-10-30T02:17:37;17.75;;;4.97;;
29724;SDS011;16636;48.394;15.468;2022-10-30T02:20:05;7.70;;;4.05;;
29724;SDS011;16636;48.394;15.468;2022-10-30T02:22:32;9.35;;;5.30;;
29724;SDS011;16636;48.394;15.468;2022-10-30T02:24:57;12.63;;;4.75;;
29724;SDS011;16636;48.394;15.468;2022-10-30T02:27:23;7.82;;;4.35;;
29724;SDS011;16636;48.394;15.468;2022-10-30T02:29:49;18.13;;;4.53;;
29724;SDS011;16636;48.394;15.468;2022-10-30T02:32:15;9.50;;;4.75;;
29724;SDS011;16636;48.394;15.468;2022-10-30T02:34:42;7.65;;;4.40;;
29724;SDS011;16636;48.394;15.468;2022-10-30T02:37:08;8.35;;;4.35;;
29724;SDS011;16636;48.394;15.468;2022-10-30T02:39:35;8.68;;;4.32;;
29724;SDS011;16636;48.394;15.468;2022-10-30T02:42:02;8.25;;;4.18;;
29724;SDS011;16636;48.394;15.468;2022-10-30T02:44:30;5.80;;;3.85;;
29724;SDS011;16636;48.394;15.468;2022-10-30T02:46:55;8.10;;;4.82;;
29724;SDS011;16636;48.394;15.468;2022-10-30T02:49:22;7.93;;;3.33;;
29724;SDS011;16636;48.394;15.468;2022-10-30T02:51:49;9.50;;;3.53;;
29724;SDS011;16636;48.394;15.468;2022-10-30T02:54:16;6.63;;;4.00;;
29724;SDS011;16636;48.394;15.468;2022-10-30T02:56:42;16.00;;;4.10;;
29724;SDS011;16636;48.394;15.468;2022-10-30T02:59:07;5.68;;;3.03;;
29724;SDS011;16636;48.394;15.468;2022-10-30T03:01:33;12.27;;;4.72;;
29724;SDS011;16636;48.394;15.468;2022-10-30T03:03:59;8.02;;;3.88;;
29724;SDS011;16636;48.394;15.468;2022-10-30T03:06:25;8.32;;;4.85;;
29724;SDS011;16636;48.394;15.468;2022-10-30T03:08:51;7.68;;;3.25;;
29724;SDS011;16636;48.394;15.468;2022-10-30T03:11:18;10.48;;;4.18;;
29724;SDS011;16636;48.394;15.468;2022-10-30T03:13:45;7.50;;;3.83;;
29724;SDS011;16636;48.394;15.468;2022-10-30T03:16:13;7.35;;;3.53;;
29724;SDS011;16636;48.394;15.468;2022-10-30T03:18:41;7.20;;;3.83;;
29724;SDS011;16636;48.394;15.468;2022-10-30T03:21:09;5.90;;;3.35;;
29724;SDS011;16636;48.394;15.468;2022-10-30T03:23:37;9.45;;;3.63;;
29724;SDS011;16636;48.394;15.468;2022-10-30T03:26:03;11.32;;;3.67;;
29724;SDS011;16636;48.394;15.468;2022-10-30T03:28:34;8.38;;;4.15;;
29724;SDS011;16636;48.394;15.468;2022-10-30T03:31:03;7.40;;;4.32;;
29724;SDS011;16636;48.394;15.468;2022-10-30T03:33:31;6.10;;;3.28;;
29724;SDS011;16636;48.394;15.468;2022-10-30T03:35:58;7.78;;;4.38;;
29724;SDS011;16636;48.394;15.468;2022-10-30T03:38:24;7.47;;;3.70;;
29724;SDS011;16636;48.394;15.468;2022-10-30T03:40:51;7.22;;;3.78;;
29724;SDS011;16636;48.394;15.468;2022-10-30T03:43:17;9.85;;;4.47;;
29724;SDS011;16636;48.394;15.468;2022-10-30T03:45:47;8.13;;;4.40;;
29724;SDS011;16636;48.394;15.468;2022-10-30T03:48:16;7.75;;;3.80;;
29724;SDS011;16636;48.394;15.468;2022-10-30T03:50:43;7.07;;;3.85;;
29724;SDS011;16636;48.394;15.468;2022-10-30T03:53:10;6.30;;;3.40;;
29724;SDS011;16636;48.394;15.468;2022-10-30T03:55:37;5.00;;;3.17;;
29724;SDS011;16636;48.394;15.468;2022-10-30T03:58:03;10.07;;;5.40;;
29724;SDS011;16636;48.394;15.468;2022-10-30T04:00:31;5.88;;;2.70;;
29724;SDS011;16636;48.394;15.468;2022-10-30T04:02:58;7.63;;;3.30;;
29724;SDS011;16636;48.394;15.468;2022-10-30T04:05:25;5.95;;;3.38;;
29724;SDS011;16636;48.394;15.468;2022-10-30T04:07:58;11.00;;;4.35;;
29724;SDS011;16636;48.394;15.468;2022-10-30T04:10:28;6.85;;;3.67;;
29724;SDS011;16636;48.394;15.468;2022-10-30T04:13:04;7.93;;;3.20;;
29724;SDS011;16636;48.394;15.468;2022-10-30T04:15:32;7.07;;;3.20;;
29724;SDS011;16636;48.394;15.468;2022-10-30T04:17:58;7.20;;;3.47;;
29724;SDS011;16636;48.394;15.468;2022-10-30T04:20:24;6.32;;;3.13;;
29724;SDS011;16636;48.394;15.468;2022-10-30T04:22:58;8.65;;;3.15;;
29724;SDS011;16636;48.394;15.468;2022-10-30T04:25:26;5.82;;;3.38;;
29724;SDS011;16636;48.394;15.468;2022-10-30T04:27:55;11.38;;;4.28;;
29724;SDS011;16636;48.394;15.468;2022-10-30T04:30:21;9.68;;;3.75;;
29724;SDS011;16636;48.394;15.468;2022-10-30T04:33:03;6.78;;;3.45;;
29724;SDS011;16636;48.394;15.468;2022-10-30T04:35:31;4.35;;;3.03;;
29724;SDS011;16636;48.394;15.468;2022-10-30T04:37:59;7.82;;;3.30;;
29724;SDS011;16636;48.394;15.468;2022-10-30T04:40:28;18.38;;;3.55;;
29724;SDS011;16636;48.394;15.468;2022-10-30T04:43:00;14.60;;;3.97;;
29724;SDS011;16636;48.394;15.468;2022-10-30T04:45:29;8.20;;;2.97;;
29724;SDS011;16636;48.394;15.468;2022-10-30T04:48:03;6.70;;;3.47;;
29724;SDS011;16636;48.394;15.468;2022-10-30T04:50:30;19.83;;;3.15;;
29724;SDS011;16636;48.394;15.468;2022-10-30T04:53:01;7.05;;;3.13;;
29724;SDS011;16636;48.394;15.468;2022-10-30T04:55:28;6.05;;;2.65;;
29724;SDS011;16636;48.394;15.468;2022-10-30T04:57:58;11.68;;;3.05;;
29724;SDS011;16636;48.394;15.468;2022-10-30T05:00:29;4.88;;;3.45;;
29724;SDS011;16636;48.394;15.468;2022-10-30T05:03:01;5.20;;;2.80;;
29724;SDS011;16636;48.394;15.468;2022-10-30T05:05:28;13.13;;;2.92;;
29724;SDS011;16636;48.394;15.468;2022-10-30T05:07:55;3.05;;;2.00;;
29724;SDS011;16636;48.394;15.468;2022-10-30T05:10:21;4.43;;;2.25;;
29724;SDS011;16636;48.394;15.468;2022-10-30T05:12:49;2.35;;;1.60;;
29724;SDS011;16636;48.394;15.468;2022-10-30T05:15:16;2.13;;;1.77;;
29724;SDS011;16636;48.394;15.468;2022-10-30T05:17:42;3.95;;;2.63;;
29724;SDS011;16636;48.394;15.468;2022-10-30T05:20:08;6.65;;;2.42;;
29724;SDS011;16636;48.394;15.468;2022-10-30T05:22:34;9.52;;;2.80;;
29724;SDS011;16636;48.394;15.468;2022-10-30T05:25:00;7.57;;;2.35;;
29724;SDS011;16636;48.394;15.468;2022-10-30T05:27:26;4.63;;;2.20;;
29724;SDS011;16636;48.394;15.468;2022-10-30T05:29:52;6.95;;;2.03;;
29724;SDS011;16636;48.394;15.468;2022-10-30T05:32:18;6.53;;;2.25;;
29724;SDS011;16636;48.394;15.468;2022-10-30T05:34:46;2.17;;;1.65;;
29724;SDS011;16636;48.394;15.468;2022-10-30T05:37:17;3.25;;;2.20;;
29724;SDS011;16636;48.394;15.468;2022-10-30T05:39:43;2.90;;;1.48;;
29724;SDS011;16636;48.394;15.468;2022-10-30T05:42:20;3.53;;;2.25;;
29724;SDS011;16636;48.394;15.468;2022-10-30T05:44:46;4.15;;;2.50;;
29724;SDS011;16636;48.394;15.468;2022-10-30T05:47:12;2.58;;;1.83;;
29724;SDS011;16636;48.394;15.468;2022-10-30T05:49:43;9.43;;;2.22;;
29724;SDS011;16636;48.394;15.468;2022-10-30T05:52:14;6.57;;;2.70;;
29724;SDS011;16636;48.394;15.468;2022-10-30T05:54:40;4.05;;;2.00;;
29724;SDS011;16636;48.394;15.468;2022-10-30T05:57:12;5.85;;;2.83;;
29724;SDS011;16636;48.394;15.468;2022-10-30T05:59:39;10.88;;;2.22;;
29724;SDS011;16636;48.394;15.468;2022-10-30T06:02:04;10.20;;;2.70;;
29724;SDS011;16636;48.394;15.468;2022-10-30T06:04:30;4.63;;;2.28;;
29724;SDS011;16636;48.394;15.468;2022-10-30T06:06:58;5.60;;;2.88;;
29724;SDS011;16636;48.394;15.468;2022-10-30T06:09:24;7.88;;;2.97;;
29724;SDS011;16636;48.394;15.468;2022-10-30T06:12:00;4.70;;;2.13;;
29724;SDS011;16636;48.394;15.468;2022-10-30T06:14:52;3.25;;;2.42;;
29724;SDS011;16636;48.394;15.468;2022-10-30T06:17:18;9.48;;;2.35;;
29724;SDS011;16636;48.394;15.468;2022-10-30T06:20:03;5.43;;;3.00;;
29724;SDS011;16636;48.394;15.468;2022-10-30T06:22:54;10.50;;;2.38;;
29724;SDS011;16636;48.394;15.468;2022-10-30T06:25:33;12.95;;;2.40;;
29724;SDS011;16636;48.394;15.468;2022-10-30T06:28:18;3.22;;;2.35;;
29724;SDS011;16636;48.394;15.468;2022-10-30T06:30:44;3.35;;;2.15;;
29724;SDS011;16636;48.394;15.468;2022-10-30T06:33:10;4.82;;;2.58;;
29724;SDS011;16636;48.394;15.468;2022-10-30T06:35:40;5.97;;;2.15;;
29724;SDS011;16636;48.394;15.468;2022-10-30T06:38:06;3.30;;;2.03;;
29724;SDS011;16636;48.394;15.468;2022-10-30T06:40:34;3.47;;;2.00;;
29724;SDS011;16636;48.394;15.468;2022-10-30T06:43:00;9.80;;;2.92;;
29724;SDS011;16636;48.394;15.468;2022-10-30T06:45:35;6.50;;;2.95;;
29724;SDS011;16636;48.394;15.468;2022-10-30T06:48:01;5.07;;;2.70;;
29724;SDS011;16636;48.394;15.468;2022-10-30T06:50:32;5.68;;;3.30;;
29724;SDS011;16636;48.394;15.468;2022-10-30T06:52:58;3.75;;;2.75;;
29724;SDS011;16636;48.394;15.468;2022-10-30T06:55:24;12.95;;;3.33;;
29724;SDS011;16636;48.394;15.468;2022-10-30T06:58:02;24.17;;;2.97;;
29724;SDS011;16636;48.394;15.468;2022-10-30T07:00:39;14.18;;;2.70;;
29724;SDS011;16636;48.394;15.468;2022-10-30T07:03:23;7.05;;;2.83;;
29724;SDS011;16636;48.394;15.468;2022-10-30T07:05:50;4.95;;;2.28;;
29724;SDS011;16636;48.394;15.468;2022-10-30T07:08:16;5.28;;;3.58;;
29724;SDS011;16636;48.394;15.468;2022-10-30T07:10:42;11.82;;;3.30;;
29724;SDS011;16636;48.394;15.468;2022-10-30T07:13:28;8.68;;;3.10;;
29724;SDS011;16636;48.394;15.468;2022-10-30T07:16:05;6.32;;;2.97;;
29724;SDS011;16636;48.394;15.468;2022-10-30T07:18:35;9.82;;;2.95;;
29724;SDS011;16636;48.394;15.468;2022-10-30T07:21:01;4.63;;;2.30;;
29724;SDS011;16636;48.394;15.468;2022-10-30T07:23:28;7.20;;;2.90;;
29724;SDS011;16636;48.394;15.468;2022-10-30T07:26:04;3.53;;;2.42;;
29724;SDS011;16636;48.394;15.468;2022-10-30T07:28:35;11.23;;;3.33;;
29724;SDS011;16636;48.394;15.468;2022-10-30T07:31:23;4.85;;;2.55;;
29724;SDS011;16636;48.394;15.468;2022-10-30T07:33:52;6.22;;;2.47;;
29724;SDS011;16636;48.394;15.468;2022-10-30T07:36:38;4.78;;;2.42;;
29724;SDS011;16636;48.394;15.468;2022-10-30T07:42:37;3.80;;;2.50;;
29724;SDS011;16636;48.394;15.468;2022-10-30T07:45:32;11.45;;;2.58;;
29724;SDS011;16636;48.394;15.468;2022-10-30T07:48:17;3.58;;;2.28;;
29724;SDS011;16636;48.394;15.468;2022-10-30T07:50:45;6.00;;;2.40;;
29724;SDS011;16636;48.394;15.468;2022-10-30T07:53:12;4.97;;;2.70;;
29724;SDS011;16636;48.394;15.468;2022-10-30T07:55:39;8.27;;;2.88;;
29724;SDS011;16636;48.394;15.468;2022-10-30T07:58:12;4.40;;;2.47;;
29724;SDS011;16636;48.394;15.468;2022-10-30T08:00:57;5.35;;;2.90;;
29724;SDS011;16636;48.394;15.468;2022-10-30T08:03:29;3.65;;;2.25;;
29724;SDS011;16636;48.394;15.468;2022-10-30T08:06:10;4.00;;;2.70;;
29724;SDS011;16636;48.394;15.468;2022-10-30T08:08:37;8.70;;;2.92;;
29724;SDS011;16636;48.394;15.468;2022-10-30T08:11:15;3.88;;;1.95;;
29724;SDS011;16636;48.394;15.468;2022-10-30T08:13:41;5.35;;;2.80;;
29724;SDS011;16636;48.394;15.468;2022-10-30T08:16:07;3.55;;;2.40;;
29724;SDS011;16636;48.394;15.468;2022-10-30T08:18:33;3.13;;;1.98;;
29724;SDS011;16636;48.394;15.468;2022-10-30T08:21:00;4.20;;;2.75;;
29724;SDS011;16636;48.394;15.468;2022-10-30T08:23:26;4.07;;;2.72;;
29724;SDS011;16636;48.394;15.468;2022-10-30T08:25:55;4.18;;;2.70;;
29724;SDS011;16636;48.394;15.468;2022-10-30T08:28:24;9.10;;;2.90;;
29724;SDS011;16636;48.394;15.468;2022-10-30T08:30:50;3.92;;;2.45;;
29724;SDS011;16636;48.394;15.468;2022-10-30T08:33:26;4.15;;;2.47;;
29724;SDS011;16636;48.394;15.468;2022-10-30T08:35:53;4.03;;;2.80;;
29724;SDS011;16636;48.394;15.468;2022-10-30T08:38:24;4.13;;;2.35;;
29724;SDS011;16636;48.394;15.468;2022-10-30T08:41:04;4.90;;;2.78;;
29724;SDS011;16636;48.394;15.468;2022-10-30T08:43:33;16.70;;;5.57;;
29724;SDS011;16636;48.394;15.468;2022-10-30T08:45:59;10.63;;;5.00;;
29724;SDS011;16636;48.394;15.468;2022-10-30T08:48:26;11.27;;;4.47;;
29724;SDS011;16636;48.394;15.468;2022-10-30T08:50:52;8.05;;;3.55;;
29724;SDS011;16636;48.394;15.468;2022-10-30T08:53:27;7.57;;;3.33;;
29724;SDS011;16636;48.394;15.468;2022-10-30T08:55:53;12.15;;;3.67;;
29724;SDS011;16636;48.394;15.468;2022-10-30T08:58:45;5.68;;;3.67;;
29724;SDS011;16636;48.394;15.468;2022-10-30T09:01:12;6.25;;;3.58;;
29724;SDS011;16636;48.394;15.468;2022-10-30T09:03:57;5.80;;;3.40;;
29724;SDS011;16636;48.394;15.468;2022-10-30T09:06:43;6.38;;;3.05;;
29724;SDS011;16636;48.394;15.468;2022-10-30T09:09:28;5.57;;;2.38;;
29724;SDS011;16636;48.394;15.468;2022-10-30T09:11:57;7.00;;;3.75;;
29724;SDS011;16636;48.394;15.468;2022-10-30T09:14:24;4.32;;;2.95;;
29724;SDS011;16636;48.394;15.468;2022-10-30T09:16:49;4.75;;;3.00;;
29724;SDS011;16636;48.394;15.468;2022-10-30T09:19:18;3.53;;;2.47;;
29724;SDS011;16636;48.394;15.468;2022-10-30T09:21:45;6.40;;;3.50;;
29724;SDS011;16636;48.394;15.468;2022-10-30T09:24:11;5.95;;;2.53;;
29724;SDS011;16636;48.394;15.468;2022-10-30T09:26:37;6.35;;;2.92;;
29724;SDS011;16636;48.394;15.468;2022-10-30T09:29:23;7.55;;;2.70;;
29724;SDS011;16636;48.394;15.468;2022-10-30T09:31:55;4.45;;;2.50;;
29724;SDS011;16636;48.394;15.468;2022-10-30T09:34:23;3.33;;;2.50;;
29724;SDS011;16636;48.394;15.468;2022-10-30T09:36:57;8.55;;;2.50;;
29724;SDS011;16636;48.394;15.468;2022-10-30T09:39:23;7.78;;;3.20;;
29724;SDS011;16636;48.394;15.468;2022-10-30T09:56:20;5.97;;;3.28;;
29724;SDS011;16636;48.394;15.468;2022-10-30T10:07:26;4.68;;;3.15;;
29724;SDS011;16636;48.394;15.468;2022-10-30T10:10:25;4.03;;;3.10;;
29724;SDS011;16636;48.394;15.468;2022-10-30T10:16:24;6.65;;;2.83;;
29724;SDS011;16636;48.394;15.468;2022-10-30T10:19:13;5.20;;;3.63;;
29724;SDS011;16636;48.394;15.468;2022-10-30T10:21:45;4.72;;;3.05;;
29724;SDS011;16636;48.394;15.468;2022-10-30T10:24:19;4.88;;;3.30;;
29724;SDS011;16636;48.394;15.468;2022-10-30T10:30:14;7.47;;;3.65;;
29724;SDS011;16636;48.394;15.468;2022-10-30T10:37:46;7.53;;;3.63;;
29724;SDS011;16636;48.394;15.468;2022-10-30T10:48:57;6.88;;;4.38;;
29724;SDS011;16636;48.394;15.468;2022-10-30T10:54:11;6.47;;;4.05;;
29724;SDS011;16636;48.394;15.468;2022-10-30T10:56:51;9.77;;;4.82;;
29724;SDS011;16636;48.394;15.468;2022-10-30T10:59:19;6.45;;;4.60;;
29724;SDS011;16636;48.394;15.468;2022-10-30T11:05:04;7.25;;;4.45;;
29724;SDS011;16636;48.394;15.468;2022-10-30T11:07:50;7.80;;;4.78;;
29724;SDS011;16636;48.394;15.468;2022-10-30T11:10:18;10.32;;;5.22;;
29724;SDS011;16636;48.394;15.468;2022-10-30T11:12:44;7.65;;;4.90;;
29724;SDS011;16636;48.394;15.468;2022-10-30T11:17:58;7.70;;;5.13;;
29724;SDS011;16636;48.394;15.468;2022-10-30T11:20:40;8.15;;;4.88;;
29724;SDS011;16636;48.394;15.468;2022-10-30T11:26:49;7.90;;;4.95;;
29724;SDS011;16636;48.394;15.468;2022-10-30T11:29:17;6.95;;;4.53;;
29724;SDS011;16636;48.394;15.468;2022-10-30T11:31:59;7.75;;;4.85;;
29724;SDS011;16636;48.394;15.468;2022-10-30T11:34:30;6.50;;;4.10;;
29724;SDS011;16636;48.394;15.468;2022-10-30T11:37:00;9.93;;;5.60;;
29724;SDS011;16636;48.394;15.468;2022-10-30T11:39:33;9.13;;;5.55;;
29724;SDS011;16636;48.394;15.468;2022-10-30T11:44:38;7.55;;;4.50;;
29724;SDS011;16636;48.394;15.468;2022-10-30T11:47:06;8.68;;;5.07;;
29724;SDS011;16636;48.394;15.468;2022-10-30T11:52:20;9.68;;;5.95;;
29724;SDS011;16636;48.394;15.468;2022-10-30T11:54:47;6.85;;;5.57;;
29724;SDS011;16636;48.394;15.468;2022-10-30T11:59:54;9.35;;;5.40;;
29724;SDS011;16636;48.394;15.468;2022-10-30T12:02:25;9.38;;;5.97;;
29724;SDS011;16636;48.394;15.468;2022-10-30T12:04:54;7.97;;;5.30;;
29724;SDS011;16636;48.394;15.468;2022-10-30T12:07:26;10.95;;;5.47;;
29724;SDS011;16636;48.394;15.468;2022-10-30T12:09:55;8.85;;;5.10;;
29724;SDS011;16636;48.394;15.468;2022-10-30T12:12:27;7.80;;;5.53;;
29724;SDS011;16636;48.394;15.468;2022-10-30T12:17:39;10.43;;;5.47;;
29724;SDS011;16636;48.394;15.468;2022-10-30T12:20:06;8.50;;;4.88;;
29724;SDS011;16636;48.394;15.468;2022-10-30T12:22:37;6.60;;;4.13;;
29724;SDS011;16636;48.394;15.468;2022-10-30T12:25:06;7.05;;;4.55;;
29724;SDS011;16636;48.394;15.468;2022-10-30T12:27:57;8.48;;;4.50;;
29724;SDS011;16636;48.394;15.468;2022-10-30T12:32:57;8.65;;;4.13;;
29724;SDS011;16636;48.394;15.468;2022-10-30T12:35:41;8.95;;;4.45;;
29724;SDS011;16636;48.394;15.468;2022-10-30T12:38:25;9.02;;;4.78;;
29724;SDS011;16636;48.394;15.468;2022-10-30T12:41:15;7.90;;;4.35;;
29724;SDS011;16636;48.394;15.468;2022-10-30T12:43:38;8.82;;;4.93;;
29724;SDS011;16636;48.394;15.468;2022-10-30T12:46:18;9.40;;;5.90;;
29724;SDS011;16636;48.394;15.468;2022-10-30T12:48:51;6.85;;;5.10;;
29724;SDS011;16636;48.394;15.468;2022-10-30T12:51:31;7.78;;;5.18;;
29724;SDS011;16636;48.394;15.468;2022-10-30T12:57:04;9.13;;;4.70;;
29724;SDS011;16636;48.394;15.468;2022-10-30T13:02:17;7.65;;;5.10;;
29724;SDS011;16636;48.394;15.468;2022-10-30T13:04:52;9.00;;;5.43;;
29724;SDS011;16636;48.394;15.468;2022-10-30T13:10:26;8.55;;;5.32;;
29724;SDS011;16636;48.394;15.468;2022-10-30T13:12:45;8.40;;;5.53;;
29724;SDS011;16636;48.394;15.468;2022-10-30T13:18:11;7.43;;;4.97;;
29724;SDS011;16636;48.394;15.468;2022-10-30T13:20:55;8.82;;;6.03;;
29724;SDS011;16636;48.394;15.468;2022-10-30T13:29:16;9.20;;;5.85;;
29724;SDS011;16636;48.394;15.468;2022-10-30T13:37:00;13.88;;;8.02;;
29724;SDS011;16636;48.394;15.468;2022-10-30T13:39:30;9.57;;;6.38;;
29724;SDS011;16636;48.394;15.468;2022-10-30T13:42:22;10.70;;;6.50;;
29724;SDS011;16636;48.394;15.468;2022-10-30T13:45:10;9.55;;;5.72;;
29724;SDS011;16636;48.394;15.468;2022-10-30T13:47:54;10.15;;;5.93;;
29724;SDS011;16636;48.394;15.468;2022-10-30T13:53:25;9.68;;;5.80;;
29724;SDS011;16636;48.394;15.468;2022-10-30T13:55:54;8.02;;;5.50;;
29724;SDS011;16636;48.394;15.468;2022-10-30T14:01:28;8.55;;;6.05;;
29724;SDS011;16636;48.394;15.468;2022-10-30T14:15:18;8.65;;;6.20;;
29724;SDS011;16636;48.394;15.468;2022-10-30T14:20:40;10.02;;;6.53;;
29724;SDS011;16636;48.394;15.468;2022-10-30T14:23:20;11.65;;;6.45;;
29724;SDS011;16636;48.394;15.468;2022-10-30T14:28:31;9.13;;;6.05;;
29724;SDS011;16636;48.394;15.468;2022-10-30T14:31:03;9.00;;;6.68;;
29724;SDS011;16636;48.394;15.468;2022-10-30T14:44:12;11.00;;;7.55;;
29724;SDS011;16636;48.394;15.468;2022-10-30T14:52:03;12.27;;;7.80;;
29724;SDS011;16636;48.394;15.468;2022-10-30T14:54:44;12.02;;;7.68;;
29724;SDS011;16636;48.394;15.468;2022-10-30T14:57:19;10.57;;;7.35;;
29724;SDS011;16636;48.394;15.468;2022-10-30T14:59:46;10.85;;;7.47;;
29724;SDS011;16636;48.394;15.468;2022-10-30T15:10:29;13.10;;;7.80;;
29724;SDS011;16636;48.394;15.468;2022-10-30T15:16:00;12.40;;;7.78;;
29724;SDS011;16636;48.394;15.468;2022-10-30T15:18:29;15.97;;;8.33;;
29724;SDS011;16636;48.394;15.468;2022-10-30T15:20:56;14.05;;;7.70;;
29724;SDS011;16636;48.394;15.468;2022-10-30T15:26:35;12.88;;;7.85;;
29724;SDS011;16636;48.394;15.468;2022-10-30T15:29:03;13.02;;;7.35;;
29724;SDS011;16636;48.394;15.468;2022-10-30T15:31:31;14.00;;;7.68;;
29724;SDS011;16636;48.394;15.468;2022-10-30T15:33:57;16.08;;;9.77;;
29724;SDS011;16636;48.394;15.468;2022-10-30T15:36:25;11.75;;;8.23;;
29724;SDS011;16636;48.394;15.468;2022-10-30T15:39:14;20.00;;;8.93;;
29724;SDS011;16636;48.394;15.468;2022-10-30T15:41:57;13.68;;;8.45;;
29724;SDS011;16636;48.394;15.468;2022-10-30T15:44:26;13.07;;;7.88;;
29724;SDS011;16636;48.394;15.468;2022-10-30T15:46:55;15.95;;;8.60;;
29724;SDS011;16636;48.394;15.468;2022-10-30T15:52:01;12.57;;;7.13;;
29724;SDS011;16636;48.394;15.468;2022-10-30T15:54:39;14.38;;;7.82;;
29724;SDS011;16636;48.394;15.468;2022-10-30T15:57:18;12.70;;;8.15;;
29724;SDS011;16636;48.394;15.468;2022-10-30T15:59:55;15.18;;;8.93;;
29724;SDS011;16636;48.394;15.468;2022-10-30T16:02:24;13.90;;;9.32;;
29724;SDS011;16636;48.394;15.468;2022-10-30T16:04:51;12.50;;;7.40;;
29724;SDS011;16636;48.394;15.468;2022-10-30T16:07:21;14.45;;;9.40;;
29724;SDS011;16636;48.394;15.468;2022-10-30T16:09:58;12.50;;;7.40;;
29724;SDS011;16636;48.394;15.468;2022-10-30T16:12:28;13.65;;;7.97;;
29724;SDS011;16636;48.394;15.468;2022-10-30T16:14:56;12.70;;;7.38;;
29724;SDS011;16636;48.394;15.468;2022-10-30T16:17:24;11.10;;;7.00;;
29724;SDS011;16636;48.394;15.468;2022-10-30T16:19:52;11.82;;;7.60;;
29724;SDS011;16636;48.394;15.468;2022-10-30T16:22:25;10.90;;;7.53;;
29724;SDS011;16636;48.394;15.468;2022-10-30T16:24:59;13.57;;;7.93;;
29724;SDS011;16636;48.394;15.468;2022-10-30T16:27:26;13.15;;;8.52;;
29724;SDS011;16636;48.394;15.468;2022-10-30T16:29:52;14.63;;;7.28;;
29724;SDS011;16636;48.394;15.468;2022-10-30T16:32:26;12.85;;;7.30;;
29724;SDS011;16636;48.394;15.468;2022-10-30T16:34:56;11.43;;;7.25;;
29724;SDS011;16636;48.394;15.468;2022-10-30T16:37:26;11.35;;;7.35;;
29724;SDS011;16636;48.394;15.468;2022-10-30T16:42:38;12.77;;;7.28;;
29724;SDS011;16636;48.394;15.468;2022-10-30T16:47:39;15.57;;;7.63;;
29724;SDS011;16636;48.394;15.468;2022-10-30T16:50:15;12.73;;;7.85;;
29724;SDS011;16636;48.394;15.468;2022-10-30T16:52:41;17.38;;;9.60;;
29724;SDS011;16636;48.394;15.468;2022-10-30T16:55:12;13.65;;;8.88;;
29724;SDS011;16636;48.394;15.468;2022-10-30T16:57:44;15.63;;;8.05;;
29724;SDS011;16636;48.394;15.468;2022-10-30T17:00:17;14.52;;;9.60;;
29724;SDS011;16636;48.394;15.468;2022-10-30T17:02:45;19.33;;;9.27;;
29724;SDS011;16636;48.394;15.468;2022-10-30T17:15:55;21.70;;;11.20;;
29724;SDS011;16636;48.394;15.468;2022-10-30T17:18:21;17.00;;;9.45;;
29724;SDS011;16636;48.394;15.468;2022-10-30T17:23:46;23.38;;;10.13;;
29724;SDS011;16636;48.394;15.468;2022-10-30T17:26:14;23.33;;;10.93;;
29724;SDS011;16636;48.394;15.468;2022-10-30T17:28:40;20.58;;;11.02;;
29724;SDS011;16636;48.394;15.468;2022-10-30T17:33:42;14.55;;;8.90;;
29724;SDS011;16636;48.394;15.468;2022-10-30T17:36:09;15.98;;;8.93;;
29724;SDS011;16636;48.394;15.468;2022-10-30T17:38:35;13.00;;;7.85;;
29724;SDS011;16636;48.394;15.468;2022-10-30T17:41:01;15.32;;;9.15;;
29724;SDS011;16636;48.394;15.468;2022-10-30T17:46:47;11.45;;;6.78;;
29724;SDS011;16636;48.394;15.468;2022-10-30T17:49:18;13.48;;;7.80;;
29724;SDS011;16636;48.394;15.468;2022-10-30T17:52:19;12.45;;;8.00;;
29724;SDS011;16636;48.394;15.468;2022-10-30T17:54:45;13.55;;;7.72;;
29724;SDS011;16636;48.394;15.468;2022-10-30T17:57:12;15.80;;;8.27;;
29724;SDS011;16636;48.394;15.468;2022-10-30T17:59:39;14.52;;;7.57;;
29724;SDS011;16636;48.394;15.468;2022-10-30T18:02:23;15.18;;;8.73;;
29724;SDS011;16636;48.394;15.468;2022-10-30T18:04:49;11.38;;;6.70;;
29724;SDS011;16636;48.394;15.468;2022-10-30T18:07:17;15.32;;;8.32;;
29724;SDS011;16636;48.394;15.468;2022-10-30T18:09:43;10.65;;;6.40;;
29724;SDS011;16636;48.394;15.468;2022-10-30T18:12:11;12.45;;;7.18;;
29724;SDS011;16636;48.394;15.468;2022-10-30T18:14:38;13.35;;;8.55;;
29724;SDS011;16636;48.394;15.468;2022-10-30T18:17:05;13.13;;;7.97;;